createdAt,value
2019-03-17T00:01:57.648Z,95.18
2019-03-17T00:04:31.492Z,95.22
2019-03-17T00:06:50.972Z,95.28
2019-03-17T00:09:17.556Z,95.29
2019-03-17T00:11:44.144Z,95.32
2019-03-17T00:14:10.660Z,95.37
2019-03-17T00:16:37.276Z,95.36
2019-03-17T00:19:03.938Z,95.39
2019-03-17T00:21:30.494Z,95.37
2019-03-17T00:23:56.999Z,95.42
2019-03-17T00:26:23.589Z,95.43
2019-03-17T00:28:50.106Z,95.43
2019-03-17T00:31:23.634Z,95.42
2019-03-17T00:33:45.728Z,95.46
2019-03-17T00:36:12.236Z,95.54
2019-03-17T00:38:38.849Z,95.52
2019-03-17T00:41:05.462Z,95.54
2019-03-17T00:43:31.980Z,95.60
2019-03-17T00:45:59.750Z,95.58
2019-03-17T00:48:26.262Z,95.59
2019-03-17T00:50:52.977Z,95.61
2019-03-17T00:53:19.513Z,95.66
2019-03-17T00:55:46.325Z,95.65
2019-03-17T00:58:12.897Z,95.70
2019-03-17T01:00:39.465Z,95.68
2019-03-17T01:03:06.077Z,95.69
2019-03-17T01:05:32.693Z,95.69
2019-03-17T01:07:59.468Z,95.68
2019-03-17T01:10:25.979Z,95.70
2019-03-17T01:12:52.680Z,95.70
2019-03-17T01:15:20.433Z,95.67
2019-03-17T01:17:46.932Z,95.69
2019-03-17T01:20:13.582Z,95.69
2019-03-17T01:22:40.208Z,95.65
2019-03-17T01:25:06.965Z,95.66
2019-03-17T01:27:33.585Z,95.64
2019-03-17T01:30:00.406Z,95.62
2019-03-17T01:32:26.882Z,95.65
2019-03-17T01:34:53.392Z,95.63
2019-03-17T01:37:19.952Z,95.61
2019-03-17T01:39:46.464Z,95.65
2019-03-17T01:42:13.026Z,95.60
2019-03-17T01:44:39.555Z,95.62
2019-03-17T01:47:06.151Z,95.65
2019-03-17T01:49:32.772Z,95.64
2019-03-17T01:51:59.456Z,95.66
2019-03-17T01:54:25.964Z,95.69
2019-03-17T01:56:52.613Z,95.68
2019-03-17T01:59:19.135Z,95.67
2019-03-17T02:01:46.838Z,95.68
2019-03-17T02:04:13.441Z,95.69
2019-03-17T02:06:39.962Z,95.72
2019-03-17T02:09:06.725Z,95.74
2019-03-17T02:11:33.402Z,95.72
2019-03-17T02:14:00.004Z,95.72
2019-03-17T02:16:26.528Z,95.72
2019-03-17T02:18:53.090Z,95.73
2019-03-17T02:21:19.814Z,95.73
2019-03-17T02:23:46.441Z,95.73
2019-03-17T02:26:13.234Z,95.75
2019-03-17T02:28:39.879Z,95.75
2019-03-17T02:31:06.513Z,95.77
2019-03-17T02:33:33.311Z,95.75
2019-03-17T02:35:59.997Z,95.76
2019-03-17T02:38:26.516Z,95.74
2019-03-17T02:40:53.128Z,95.73
2019-03-17T02:43:19.734Z,95.74
2019-03-17T02:45:46.357Z,95.76
2019-03-17T02:48:13.125Z,95.79
2019-03-17T02:50:39.640Z,95.80
2019-03-17T02:53:06.592Z,95.79
2019-03-17T02:55:33.161Z,95.79
2019-03-17T02:57:59.887Z,95.80
2019-03-17T03:00:26.582Z,95.83
2019-03-17T03:02:53.113Z,95.82
2019-03-17T03:05:19.768Z,95.83
2019-03-17T03:07:46.545Z,95.80
2019-03-17T03:10:13.396Z,95.81
2019-03-17T03:12:39.952Z,95.78
2019-03-17T03:15:06.819Z,95.80
2019-03-17T03:17:33.575Z,95.79
2019-03-17T03:20:00.696Z,95.78
2019-03-17T03:22:27.568Z,95.80
2019-03-17T03:24:54.128Z,95.79
2019-03-17T03:27:20.845Z,95.76
2019-03-17T03:29:47.478Z,95.85
2019-03-17T03:32:14.327Z,95.85
2019-03-17T03:34:40.844Z,95.86
2019-03-17T03:37:07.605Z,95.85
2019-03-17T03:39:34.249Z,95.85
2019-03-17T03:42:00.825Z,95.88
2019-03-17T03:44:27.470Z,95.88
2019-03-17T03:46:54.113Z,95.92
2019-03-17T03:49:20.894Z,95.91
2019-03-17T03:51:47.448Z,95.91
2019-03-17T03:54:14.123Z,95.90
2019-03-17T03:56:40.775Z,95.88
2019-03-17T03:59:07.430Z,95.87
2019-03-17T04:01:34.070Z,95.87
2019-03-17T04:04:00.710Z,95.83
2019-03-17T04:06:27.420Z,95.83
2019-03-17T04:08:54.246Z,95.82
2019-03-17T04:11:21.013Z,95.85
2019-03-17T04:13:47.556Z,95.88
2019-03-17T04:16:14.229Z,95.90
2019-03-17T04:18:41.070Z,95.88
2019-03-17T04:21:07.707Z,95.92
2019-03-17T04:23:34.539Z,95.90
2019-03-17T04:26:01.400Z,95.92
2019-03-17T04:28:28.224Z,95.93
2019-03-17T04:30:54.893Z,95.92
2019-03-17T04:33:21.634Z,95.94
2019-03-17T04:35:48.261Z,95.96
2019-03-17T04:38:14.915Z,95.95
2019-03-17T04:40:41.753Z,95.98
2019-03-17T04:43:08.416Z,95.97
2019-03-17T04:45:35.142Z,95.96
2019-03-17T04:48:01.713Z,95.96
2019-03-17T04:50:28.411Z,95.92
2019-03-17T04:52:55.077Z,95.98
2019-03-17T04:55:21.737Z,96.00
2019-03-17T04:57:48.421Z,95.99
2019-03-17T05:00:15.162Z,95.99
2019-03-17T05:02:41.930Z,96.01
2019-03-17T05:05:09.091Z,96.02
2019-03-17T05:07:35.862Z,96.04
2019-03-17T05:10:03.286Z,96.04
2019-03-17T05:12:29.944Z,96.08
2019-03-17T05:14:56.784Z,96.08
2019-03-17T05:17:23.536Z,96.11
2019-03-17T05:19:50.090Z,96.12
2019-03-17T05:22:16.768Z,96.12
2019-03-17T05:24:43.407Z,96.10
2019-03-17T05:27:10.181Z,96.15
2019-03-17T05:29:36.842Z,96.15
2019-03-17T05:32:03.654Z,96.20
2019-03-17T05:34:30.197Z,96.18
2019-03-17T05:37:06.103Z,96.22
2019-03-17T05:39:25.740Z,96.21
2019-03-17T05:41:52.426Z,96.24
2019-03-17T05:44:19.008Z,96.23
2019-03-17T05:46:45.754Z,96.25
2019-03-17T05:49:12.338Z,96.25
2019-03-17T05:51:39.082Z,96.26
2019-03-17T05:54:05.752Z,96.31
2019-03-17T05:56:32.543Z,96.31
2019-03-17T05:58:59.330Z,96.29
2019-03-17T06:01:26.110Z,96.30
2019-03-17T06:03:52.654Z,96.28
2019-03-17T06:06:19.335Z,96.29
2019-03-17T06:08:46.044Z,96.25
2019-03-17T06:11:12.694Z,96.24
2019-03-17T06:13:39.411Z,96.21
2019-03-17T06:16:06.067Z,96.21
2019-03-17T06:18:32.752Z,96.17
2019-03-17T06:20:59.424Z,96.18
2019-03-17T06:23:25.992Z,96.11
2019-03-17T06:25:52.547Z,96.12
2019-03-17T06:28:21.518Z,96.06
2019-03-17T06:30:47.836Z,96.05
2019-03-17T06:33:15.659Z,95.98
2019-03-17T06:35:42.442Z,95.93
2019-03-17T06:38:09.271Z,95.80
2019-03-17T06:40:35.808Z,95.64
2019-03-17T06:43:04.160Z,95.58
2019-03-17T06:45:31.234Z,95.41
2019-03-17T06:47:58.638Z,95.29
2019-03-17T06:50:25.626Z,95.12
2019-03-17T06:52:53.643Z,95.10
2019-03-17T06:55:20.925Z,94.92
2019-03-17T06:57:47.723Z,95.10
2019-03-17T07:00:14.700Z,94.86
2019-03-17T07:02:41.575Z,94.73
2019-03-17T07:05:08.466Z,94.53
2019-03-17T07:07:43.838Z,94.51
2019-03-17T07:10:06.608Z,93.93
2019-03-17T07:12:33.395Z,93.51
2019-03-17T07:15:00.249Z,92.90
2019-03-17T07:17:28.175Z,92.30
2019-03-17T07:19:56.138Z,91.65
2019-03-17T07:22:22.903Z,90.18
2019-03-17T07:24:49.667Z,88.78
2019-03-17T07:27:16.462Z,87.99
2019-03-17T07:29:43.140Z,87.22
2019-03-17T07:32:09.982Z,87.25
2019-03-17T07:34:36.686Z,86.63
2019-03-17T07:37:03.593Z,85.81
2019-03-17T07:39:30.356Z,84.87
2019-03-17T07:41:57.045Z,83.55
2019-03-17T07:44:23.923Z,83.04
2019-03-17T07:46:50.631Z,82.99
2019-03-17T07:49:17.612Z,82.51
2019-03-17T07:51:44.531Z,81.29
2019-03-17T07:54:11.277Z,79.96
2019-03-17T07:56:38.018Z,79.67
2019-03-17T07:59:04.902Z,78.72
2019-03-17T08:01:31.723Z,77.84
2019-03-17T08:03:58.491Z,78.46
2019-03-17T08:06:26.489Z,76.73
2019-03-17T08:08:53.324Z,74.82
2019-03-17T08:11:20.013Z,71.86
2019-03-17T08:13:46.829Z,69.29
2019-03-17T08:16:13.499Z,68.29
2019-03-17T08:18:40.157Z,67.61
2019-03-17T08:21:07.059Z,63.79
2019-03-17T08:23:33.860Z,60.42
2019-03-17T08:26:00.688Z,59.34
2019-03-17T08:28:27.375Z,57.02
2019-03-17T08:30:54.192Z,53.92
2019-03-17T08:33:20.983Z,51.88
2019-03-17T08:35:47.740Z,51.55
2019-03-17T08:38:21.723Z,50.24
2019-03-17T08:40:43.089Z,48.66
2019-03-17T08:43:09.859Z,48.20
2019-03-17T08:45:36.551Z,48.29
2019-03-17T08:48:03.400Z,43.65
2019-03-17T08:50:30.223Z,42.78
2019-03-17T08:52:56.797Z,43.87
2019-03-17T08:55:23.516Z,44.34
2019-03-17T08:57:50.169Z,44.06
2019-03-17T09:00:17.036Z,42.76
2019-03-17T09:02:44.534Z,42.01
2019-03-17T09:05:11.755Z,39.22
2019-03-17T09:07:38.590Z,41.13
2019-03-17T09:10:07.072Z,39.91
2019-03-17T09:12:33.835Z,39.34
2019-03-17T09:15:00.629Z,38.74
2019-03-17T09:17:27.361Z,36.98
2019-03-17T09:19:54.123Z,37.35
2019-03-17T09:22:21.018Z,39.29
2019-03-17T09:24:47.679Z,41.50
2019-03-17T09:27:14.238Z,42.63
2019-03-17T09:29:41.091Z,43.41
2019-03-17T09:32:07.841Z,42.33
2019-03-17T09:34:34.608Z,43.52
2019-03-17T09:37:01.406Z,42.44
2019-03-17T09:39:28.167Z,41.95
2019-03-17T09:41:54.885Z,41.52
2019-03-17T09:44:21.711Z,40.12
2019-03-17T09:46:48.369Z,38.95
2019-03-17T09:49:15.255Z,40.03
2019-03-17T09:51:42.139Z,39.27
2019-03-17T09:54:08.923Z,37.58
2019-03-17T09:56:35.746Z,36.06
2019-03-17T09:59:02.566Z,36.82
2019-03-17T10:01:29.245Z,37.60
2019-03-17T10:03:55.922Z,37.02
2019-03-17T10:06:22.838Z,36.36
2019-03-17T10:08:59.433Z,33.45
2019-03-17T10:11:18.172Z,33.84
2019-03-17T10:13:44.952Z,33.71
2019-03-17T10:16:11.774Z,32.34
2019-03-17T10:18:38.529Z,33.64
2019-03-17T10:21:05.368Z,33.24
2019-03-17T10:23:32.050Z,32.74
2019-03-17T10:25:58.843Z,33.08
2019-03-17T10:28:25.620Z,30.78
2019-03-17T10:30:52.417Z,30.74
2019-03-17T10:33:19.313Z,29.10
2019-03-17T10:35:46.105Z,29.15
2019-03-17T10:38:12.780Z,28.36
2019-03-17T10:40:39.476Z,30.28
2019-03-17T10:43:06.496Z,29.21
2019-03-17T10:45:35.957Z,28.32
2019-03-17T10:48:02.761Z,26.72
2019-03-17T10:50:29.510Z,26.50
2019-03-17T10:52:56.291Z,24.68
2019-03-17T10:55:22.930Z,23.86
2019-03-17T10:57:49.605Z,21.16
2019-03-17T11:00:16.691Z,20.61
2019-03-17T11:02:43.446Z,19.94
2019-03-17T11:05:10.617Z,19.86
2019-03-17T11:07:37.481Z,18.76
2019-03-17T11:10:04.907Z,18.67
2019-03-17T11:12:31.734Z,18.16
2019-03-17T11:14:58.495Z,18.90
2019-03-17T11:17:25.430Z,17.83
2019-03-17T11:19:52.212Z,17.97
2019-03-17T11:22:19.098Z,19.05
2019-03-17T11:24:45.822Z,18.53
2019-03-17T11:27:12.569Z,17.46
2019-03-17T11:29:39.445Z,18.58
2019-03-17T11:32:06.761Z,17.65
2019-03-17T11:34:33.646Z,17.76
2019-03-17T11:37:00.489Z,17.09
2019-03-17T11:39:37.206Z,17.41
2019-03-17T11:41:55.802Z,18.13
2019-03-17T11:44:22.739Z,17.70
2019-03-17T11:46:49.510Z,18.08
2019-03-17T11:49:16.260Z,18.98
2019-03-17T11:51:43.004Z,18.83
2019-03-17T11:54:09.775Z,18.23
2019-03-17T11:56:36.629Z,17.04
2019-03-17T11:59:03.372Z,18.01
2019-03-17T12:01:30.369Z,17.00
2019-03-17T12:03:57.145Z,16.86
2019-03-17T12:06:23.853Z,17.98
2019-03-17T12:08:50.546Z,19.17
2019-03-17T12:11:17.237Z,20.71
2019-03-17T12:13:44.142Z,20.91
2019-03-17T12:16:10.839Z,22.43
2019-03-17T12:18:37.614Z,22.21
2019-03-17T12:21:04.368Z,22.64
2019-03-17T12:23:31.127Z,23.15
2019-03-17T12:25:57.947Z,23.76
2019-03-17T12:28:24.837Z,24.85
2019-03-17T12:30:51.680Z,23.74
2019-03-17T12:33:18.435Z,23.62
2019-03-17T12:35:45.189Z,23.92
2019-03-17T12:38:11.883Z,24.38
2019-03-17T12:40:38.668Z,25.05
2019-03-17T12:43:05.643Z,25.34
2019-03-17T12:45:32.484Z,25.43
2019-03-17T12:47:59.497Z,26.04
2019-03-17T12:50:26.329Z,26.77
2019-03-17T12:52:53.194Z,27.73
2019-03-17T12:55:20.112Z,27.08
2019-03-17T12:57:46.917Z,28.13
2019-03-17T13:00:14.254Z,27.45
2019-03-17T13:02:40.929Z,28.01
2019-03-17T13:05:08.259Z,29.10
2019-03-17T13:07:35.206Z,28.67
2019-03-17T13:10:14.656Z,28.41
2019-03-17T13:12:30.771Z,29.08
2019-03-17T13:14:57.547Z,28.98
2019-03-17T13:17:25.522Z,29.39
2019-03-17T13:19:52.261Z,29.54
2019-03-17T13:22:19.203Z,29.52
2019-03-17T13:24:46.004Z,28.97
2019-03-17T13:27:12.903Z,30.10
2019-03-17T13:29:39.773Z,30.53
2019-03-17T13:32:06.674Z,29.47
2019-03-17T13:34:33.602Z,30.29
2019-03-17T13:37:00.423Z,30.73
2019-03-17T13:39:27.312Z,30.14
2019-03-17T13:41:54.285Z,30.00
2019-03-17T13:44:23.015Z,30.32
2019-03-17T13:46:49.879Z,30.28
2019-03-17T13:49:16.762Z,30.68
2019-03-17T13:51:43.659Z,29.47
2019-03-17T13:54:10.642Z,29.67
2019-03-17T13:56:37.934Z,31.37
2019-03-17T13:59:06.483Z,29.75
2019-03-17T14:01:33.541Z,29.36
2019-03-17T14:04:00.540Z,29.33
2019-03-17T14:06:27.387Z,29.68
2019-03-17T14:08:54.394Z,30.76
2019-03-17T14:11:21.265Z,30.25
2019-03-17T14:13:47.964Z,29.85
2019-03-17T14:16:15.877Z,29.39
2019-03-17T14:18:42.829Z,28.99
2019-03-17T14:21:09.924Z,30.03
2019-03-17T14:23:36.861Z,30.04
2019-03-17T14:26:03.790Z,30.43
2019-03-17T14:28:30.782Z,30.04
2019-03-17T14:30:57.559Z,30.49
2019-03-17T14:33:27.581Z,30.42
2019-03-17T14:35:54.774Z,30.97
2019-03-17T14:38:21.641Z,31.01
2019-03-17T14:40:53.423Z,32.11
2019-03-17T14:43:17.108Z,31.18
2019-03-17T14:45:43.890Z,30.38
2019-03-17T14:48:10.871Z,30.82
2019-03-17T14:50:37.719Z,29.62
2019-03-17T14:53:04.607Z,30.32
2019-03-17T14:55:31.293Z,29.54
2019-03-17T14:57:58.177Z,29.28
2019-03-17T15:00:24.923Z,29.55
2019-03-17T15:02:51.691Z,29.04
2019-03-17T15:05:18.651Z,29.00
2019-03-17T15:07:45.623Z,29.49
2019-03-17T15:10:13.899Z,28.48
2019-03-17T15:12:40.765Z,28.16
2019-03-17T15:15:09.141Z,27.33
2019-03-17T15:17:36.074Z,28.04
2019-03-17T15:20:04.796Z,28.54
2019-03-17T15:22:31.871Z,28.69
2019-03-17T15:24:58.686Z,29.10
2019-03-17T15:27:25.650Z,28.96
2019-03-17T15:29:52.598Z,29.24
2019-03-17T15:32:19.528Z,30.55
2019-03-17T15:34:46.145Z,30.85
2019-03-17T15:37:12.943Z,31.82
2019-03-17T15:39:39.749Z,31.99
2019-03-17T15:42:06.617Z,32.57
2019-03-17T15:44:33.337Z,33.54
2019-03-17T15:47:00.072Z,34.61
2019-03-17T15:49:26.818Z,35.77
2019-03-17T15:51:53.662Z,37.08
2019-03-17T15:54:21.676Z,36.35
2019-03-17T15:56:48.564Z,36.88
2019-03-17T15:59:15.399Z,37.65
2019-03-17T16:01:42.200Z,37.72
2019-03-17T16:04:08.958Z,38.08
2019-03-17T16:06:35.723Z,39.19
2019-03-17T16:09:03.410Z,39.34
2019-03-17T16:11:31.353Z,40.28
2019-03-17T16:13:58.302Z,40.84
2019-03-17T16:16:25.044Z,41.00
2019-03-17T16:18:52.005Z,41.28
2019-03-17T16:21:18.693Z,43.80
2019-03-17T16:23:45.563Z,45.17
2019-03-17T16:26:12.275Z,47.14
2019-03-17T16:28:39.190Z,48.07
2019-03-17T16:31:05.961Z,48.83
2019-03-17T16:33:32.767Z,49.73
2019-03-17T16:35:59.611Z,50.40
2019-03-17T16:38:26.255Z,51.93
2019-03-17T16:40:52.929Z,54.21
2019-03-17T16:43:19.680Z,55.99
2019-03-17T16:45:46.349Z,57.47
2019-03-17T16:48:13.276Z,58.58
2019-03-17T16:50:40.173Z,59.15
2019-03-17T16:53:06.834Z,59.83
2019-03-17T16:55:33.564Z,60.45
2019-03-17T16:58:00.447Z,60.92
2019-03-17T17:00:27.679Z,60.41
2019-03-17T17:02:54.493Z,60.54
2019-03-17T17:05:21.377Z,59.10
2019-03-17T17:07:48.117Z,59.43
2019-03-17T17:10:15.812Z,60.28
2019-03-17T17:12:42.653Z,61.05
2019-03-17T17:15:12.170Z,61.63
2019-03-17T17:17:38.985Z,62.59
2019-03-17T17:20:07.342Z,63.53
2019-03-17T17:22:35.122Z,65.09
2019-03-17T17:25:02.039Z,65.45
2019-03-17T17:27:28.835Z,66.76
2019-03-17T17:29:55.610Z,66.55
2019-03-17T17:32:22.463Z,66.92
2019-03-17T17:34:49.257Z,67.16
2019-03-17T17:37:16.161Z,67.83
2019-03-17T17:39:42.961Z,69.19
2019-03-17T17:42:10.483Z,69.18
2019-03-17T17:44:37.213Z,69.78
2019-03-17T17:47:04.098Z,69.28
2019-03-17T17:49:30.881Z,69.81
2019-03-17T17:51:57.572Z,70.85
2019-03-17T17:54:24.420Z,71.68
2019-03-17T17:56:51.251Z,71.97
2019-03-17T17:59:18.103Z,72.33
2019-03-17T18:01:45.056Z,73.30
2019-03-17T18:04:11.882Z,72.53
2019-03-17T18:06:38.697Z,71.94
2019-03-17T18:09:06.927Z,73.06
2019-03-17T18:11:33.723Z,73.50
2019-03-17T18:14:00.718Z,73.98
2019-03-17T18:16:27.498Z,73.59
2019-03-17T18:18:54.174Z,74.31
2019-03-17T18:21:20.918Z,74.16
2019-03-17T18:23:47.678Z,73.34
2019-03-17T18:26:14.492Z,73.19
2019-03-17T18:28:41.179Z,73.80
2019-03-17T18:31:07.972Z,73.29
2019-03-17T18:33:34.637Z,73.87
2019-03-17T18:36:01.563Z,74.77
2019-03-17T18:38:28.293Z,74.76
2019-03-17T18:40:55.059Z,75.06
2019-03-17T18:43:21.886Z,74.69
2019-03-17T18:45:48.718Z,73.62
2019-03-17T18:48:15.442Z,74.87
2019-03-17T18:50:42.130Z,75.88
2019-03-17T18:53:08.873Z,74.49
2019-03-17T18:55:35.713Z,74.57
2019-03-17T18:58:03.596Z,74.88
2019-03-17T19:00:30.582Z,74.55
2019-03-17T19:02:57.288Z,75.02
2019-03-17T19:05:24.171Z,74.34
2019-03-17T19:07:50.985Z,73.77
2019-03-17T19:10:17.662Z,73.67
2019-03-17T19:12:45.923Z,73.66
2019-03-17T19:15:13.386Z,73.51
2019-03-17T19:17:40.112Z,72.63
2019-03-17T19:20:07.800Z,71.97
2019-03-17T19:22:34.571Z,72.79
2019-03-17T19:25:01.341Z,72.14
2019-03-17T19:27:28.223Z,72.77
2019-03-17T19:29:54.891Z,72.97
2019-03-17T19:32:21.661Z,72.04
2019-03-17T19:34:48.932Z,72.05
2019-03-17T19:37:15.754Z,71.33
2019-03-17T19:39:42.444Z,72.35
2019-03-17T19:42:09.149Z,72.29
2019-03-17T19:44:35.789Z,71.71
2019-03-17T19:47:02.623Z,72.02
2019-03-17T19:49:29.404Z,72.09
2019-03-17T19:51:56.081Z,72.50
2019-03-17T19:54:22.641Z,72.16
2019-03-17T19:56:49.523Z,72.33
2019-03-17T19:59:16.322Z,71.98
2019-03-17T20:01:43.018Z,72.56
2019-03-17T20:04:09.888Z,71.56
2019-03-17T20:06:36.677Z,70.56
2019-03-17T20:09:06.019Z,72.41
2019-03-17T20:11:32.943Z,72.57
2019-03-17T20:13:59.639Z,72.41
2019-03-17T20:16:26.691Z,72.03
2019-03-17T20:18:53.583Z,72.41
2019-03-17T20:21:20.319Z,72.75
2019-03-17T20:23:47.112Z,72.77
2019-03-17T20:26:13.926Z,72.58
2019-03-17T20:28:40.681Z,73.35
2019-03-17T20:31:07.393Z,73.62
2019-03-17T20:33:35.193Z,73.90
2019-03-17T20:36:01.993Z,73.93
2019-03-17T20:38:28.684Z,73.25
2019-03-17T20:40:56.543Z,73.27
2019-03-17T20:43:34.253Z,73.07
2019-03-17T20:45:52.172Z,73.43
2019-03-17T20:48:19.215Z,72.94
2019-03-17T20:50:46.137Z,73.73
2019-03-17T20:53:13.010Z,73.08
2019-03-17T20:55:39.863Z,73.10
2019-03-17T20:58:06.759Z,72.92
2019-03-17T21:00:33.486Z,73.25
2019-03-17T21:03:00.325Z,73.41
2019-03-17T21:05:27.309Z,73.76
2019-03-17T21:07:54.048Z,73.86
2019-03-17T21:10:20.908Z,73.89
2019-03-17T21:12:47.752Z,74.58
2019-03-17T21:15:14.629Z,75.36
2019-03-17T21:17:41.873Z,75.63
2019-03-17T21:20:10.966Z,75.71
2019-03-17T21:22:37.690Z,76.33
2019-03-17T21:25:04.677Z,75.94
2019-03-17T21:27:31.368Z,76.35
2019-03-17T21:29:58.170Z,76.11
2019-03-17T21:32:25.018Z,77.29
2019-03-17T21:34:51.870Z,77.00
2019-03-17T21:37:18.761Z,77.20
2019-03-17T21:39:45.624Z,77.45
2019-03-17T21:42:12.387Z,77.71
2019-03-17T21:44:40.484Z,77.42
2019-03-17T21:47:07.232Z,77.85
2019-03-17T21:49:33.935Z,77.66
2019-03-17T21:52:00.788Z,77.64
2019-03-17T21:54:27.532Z,77.65
2019-03-17T21:56:54.281Z,77.34
2019-03-17T21:59:20.929Z,76.92
2019-03-17T22:01:47.704Z,77.18
2019-03-17T22:04:14.449Z,78.03
2019-03-17T22:06:41.212Z,77.78
2019-03-17T22:09:07.980Z,77.84
2019-03-17T22:11:34.641Z,78.43
2019-03-17T22:14:11.684Z,78.77
2019-03-17T22:16:30.267Z,78.78
2019-03-17T22:18:56.966Z,78.85
2019-03-17T22:21:23.642Z,78.82
2019-03-17T22:23:50.336Z,79.07
2019-03-17T22:26:17.011Z,78.98
2019-03-17T22:28:43.671Z,78.48
2019-03-17T22:31:11.544Z,78.29
2019-03-17T22:33:38.220Z,78.34
2019-03-17T22:36:04.872Z,78.46
2019-03-17T22:38:31.548Z,78.80
2019-03-17T22:40:58.275Z,78.96
2019-03-17T22:43:25.012Z,79.01
2019-03-17T22:45:52.904Z,79.22
2019-03-17T22:48:19.577Z,79.66
2019-03-17T22:50:46.249Z,79.56
2019-03-17T22:53:12.867Z,79.69
2019-03-17T22:55:39.416Z,79.47
2019-03-17T22:58:06.189Z,79.32
2019-03-17T23:00:41.222Z,79.31
2019-03-17T23:03:07.903Z,79.20
2019-03-17T23:05:34.752Z,79.06
2019-03-17T23:08:01.447Z,78.85
2019-03-17T23:10:28.106Z,78.82
2019-03-17T23:12:54.863Z,78.20
2019-03-17T23:15:21.758Z,78.12
2019-03-17T23:17:48.552Z,78.14
2019-03-17T23:20:15.447Z,77.43
2019-03-17T23:22:42.267Z,77.48
2019-03-17T23:25:08.926Z,77.10
2019-03-17T23:27:35.793Z,76.24
2019-03-17T23:30:02.673Z,75.73
2019-03-17T23:32:29.337Z,75.92
2019-03-17T23:34:56.192Z,76.46
2019-03-17T23:37:22.866Z,76.08
2019-03-17T23:39:49.568Z,74.01
2019-03-17T23:42:16.281Z,73.71
2019-03-17T23:44:48.735Z,73.57
2019-03-17T23:47:11.408Z,73.42
2019-03-17T23:49:37.971Z,72.99
2019-03-17T23:52:04.629Z,72.36
2019-03-17T23:54:31.232Z,73.05
2019-03-17T23:56:57.893Z,73.33
2019-03-17T23:59:24.699Z,73.94
